createdAt,value
2022-12-19T00:00:04.211Z,0.00
2022-12-19T00:01:04.207Z,0.00
2022-12-19T00:02:04.380Z,0.00
2022-12-19T00:03:04.331Z,0.00
2022-12-19T00:04:07.031Z,0.00
2022-12-19T00:05:04.214Z,0.00
2022-12-19T00:06:04.145Z,0.00
2022-12-19T00:07:04.279Z,0.00
2022-12-19T00:08:13.950Z,0.00
2022-12-19T00:09:05.114Z,0.00
2022-12-19T00:10:04.107Z,0.00
2022-12-19T00:11:04.093Z,0.00
2022-12-19T00:12:04.081Z,0.00
2022-12-19T00:13:04.102Z,0.00
2022-12-19T00:14:04.059Z,0.00
2022-12-19T00:15:04.053Z,0.00
2022-12-19T00:16:04.123Z,0.00
2022-12-19T00:17:04.032Z,0.00
2022-12-19T00:18:04.014Z,0.00
2022-12-19T00:19:04.018Z,0.00
2022-12-19T00:20:04.005Z,0.00
2022-12-19T00:21:03.985Z,0.00
2022-12-19T00:22:08.253Z,0.00
2022-12-19T00:23:05.082Z,0.00
2022-12-19T00:24:04.788Z,0.00
2022-12-19T00:25:04.953Z,0.00
2022-12-19T00:26:03.990Z,0.00
2022-12-19T00:27:03.921Z,0.00
2022-12-19T00:28:03.912Z,0.00
2022-12-19T00:29:03.902Z,0.00
2022-12-19T00:30:03.888Z,0.00
2022-12-19T00:31:03.893Z,0.00
2022-12-19T00:32:03.973Z,0.00
2022-12-19T00:33:03.863Z,0.00
2022-12-19T00:34:03.848Z,0.00
2022-12-19T00:35:03.840Z,0.00
2022-12-19T00:36:03.831Z,0.00
2022-12-19T00:37:03.835Z,0.00
2022-12-19T00:38:03.856Z,0.00
2022-12-19T00:39:07.711Z,0.00
2022-12-19T00:40:03.784Z,0.00
2022-12-19T00:41:03.772Z,0.00
2022-12-19T00:42:03.779Z,0.00
2022-12-19T00:43:03.753Z,0.00
2022-12-19T00:44:03.742Z,0.00
2022-12-19T00:45:03.732Z,0.00
2022-12-19T00:46:03.848Z,0.00
2022-12-19T00:47:03.713Z,0.00
2022-12-19T00:48:03.701Z,0.00
2022-12-19T00:49:03.702Z,0.00
2022-12-19T00:50:03.684Z,0.00
2022-12-19T00:51:03.670Z,0.00
2022-12-19T00:52:03.683Z,0.00
2022-12-19T00:53:03.700Z,0.00
2022-12-19T00:54:05.501Z,0.00
2022-12-19T00:55:03.747Z,0.00
2022-12-19T00:56:03.613Z,0.00
2022-12-19T00:57:03.597Z,0.00
2022-12-19T00:58:03.605Z,0.00
2022-12-19T00:59:03.632Z,0.00
2022-12-19T01:00:03.569Z,0.00
2022-12-19T01:01:03.624Z,0.00
2022-12-19T01:02:03.680Z,0.00
2022-12-19T01:03:03.589Z,0.00
2022-12-19T01:05:04.577Z,0.00
2022-12-19T01:06:03.504Z,0.00
2022-12-19T01:07:03.491Z,0.00
2022-12-19T01:08:03.492Z,0.00
2022-12-19T01:09:03.483Z,0.00
2022-12-19T01:10:03.500Z,0.00
2022-12-19T01:11:03.578Z,0.00
2022-12-19T01:12:03.438Z,0.00
2022-12-19T01:13:03.428Z,0.00
2022-12-19T01:14:03.417Z,0.00
2022-12-19T01:15:04.299Z,0.00
2022-12-19T01:16:03.500Z,0.00
2022-12-19T01:17:03.385Z,0.00
2022-12-19T01:18:03.373Z,0.00
2022-12-19T01:19:03.362Z,0.00
2022-12-19T01:20:03.365Z,0.00
2022-12-19T01:21:03.340Z,0.00
2022-12-19T01:22:03.335Z,0.00
2022-12-19T01:23:03.325Z,0.00
2022-12-19T01:24:03.317Z,0.00
2022-12-19T01:25:03.314Z,0.00
2022-12-19T01:26:03.292Z,0.00
2022-12-19T01:27:03.415Z,0.00
2022-12-19T01:28:03.264Z,0.00
2022-12-19T01:29:03.266Z,0.00
2022-12-19T01:30:03.246Z,0.00
2022-12-19T01:31:03.314Z,0.00
2022-12-19T01:32:03.394Z,0.00
2022-12-19T01:33:03.215Z,0.00
2022-12-19T01:34:03.217Z,0.00
2022-12-19T01:35:03.190Z,0.00
2022-12-19T01:36:03.181Z,0.00
2022-12-19T01:37:03.176Z,0.00
2022-12-19T01:38:08.097Z,0.00
2022-12-19T01:39:04.149Z,0.00
2022-12-19T01:40:03.138Z,0.00
2022-12-19T01:41:03.126Z,0.00
2022-12-19T01:42:03.122Z,0.00
2022-12-19T01:43:03.227Z,0.00
2022-12-19T01:44:03.101Z,0.00
2022-12-19T01:45:03.087Z,0.00
2022-12-19T01:46:03.131Z,0.00
2022-12-19T01:47:03.078Z,0.00
2022-12-19T01:48:03.052Z,0.00
2022-12-19T01:49:03.038Z,0.00
2022-12-19T01:50:03.045Z,0.00
2022-12-19T01:51:03.030Z,0.00
2022-12-19T01:52:03.008Z,0.00
2022-12-19T01:53:02.999Z,0.00
2022-12-19T01:54:02.980Z,0.00
2022-12-19T01:55:02.986Z,0.00
2022-12-19T01:56:10.118Z,0.00
2022-12-19T01:57:03.961Z,0.00
2022-12-19T01:58:02.914Z,0.00
2022-12-19T01:59:05.984Z,0.00
2022-12-19T02:00:02.903Z,0.00
2022-12-19T02:01:02.928Z,0.00
2022-12-19T02:02:03.037Z,0.00
2022-12-19T02:03:02.968Z,0.00
2022-12-19T02:04:02.851Z,0.00
2022-12-19T02:05:02.848Z,0.00
2022-12-19T02:06:02.827Z,0.00
2022-12-19T02:07:11.602Z,0.00
2022-12-19T02:08:03.800Z,0.00
2022-12-19T02:09:02.798Z,0.00
2022-12-19T02:10:02.831Z,0.00
2022-12-19T02:11:02.770Z,0.00
2022-12-19T02:12:02.779Z,0.00
2022-12-19T02:13:02.771Z,0.00
2022-12-19T02:14:02.751Z,0.00
2022-12-19T02:15:03.632Z,0.00
2022-12-19T02:16:02.739Z,0.00
2022-12-19T02:17:02.723Z,0.00
2022-12-19T02:18:02.707Z,0.00
2022-12-19T02:19:02.684Z,0.00
2022-12-19T02:20:02.679Z,0.00
2022-12-19T02:21:02.669Z,0.00
2022-12-19T02:22:02.661Z,0.00
2022-12-19T02:23:02.729Z,0.00
2022-12-19T02:24:02.637Z,0.00
2022-12-19T02:25:02.623Z,0.00
2022-12-19T02:26:02.625Z,0.00
2022-12-19T02:27:02.614Z,0.00
2022-12-19T02:28:02.602Z,0.00
2022-12-19T02:29:02.639Z,0.00
2022-12-19T02:30:02.571Z,0.00
2022-12-19T02:31:05.671Z,0.00
2022-12-19T02:32:03.634Z,0.00
2022-12-19T02:33:02.545Z,0.00
2022-12-19T02:34:02.537Z,0.00
2022-12-19T02:35:02.539Z,0.00
2022-12-19T02:36:02.516Z,0.00
2022-12-19T02:37:02.510Z,0.00
2022-12-19T02:38:02.566Z,0.00
2022-12-19T02:39:02.487Z,0.00
2022-12-19T02:40:02.472Z,0.00
2022-12-19T02:41:02.482Z,0.00
2022-12-19T02:42:02.454Z,0.00
2022-12-19T02:43:02.449Z,0.00
2022-12-19T02:44:02.442Z,0.00
2022-12-19T02:45:02.422Z,0.00
2022-12-19T02:46:02.494Z,0.00
2022-12-19T02:47:02.536Z,0.00
2022-12-19T02:48:07.387Z,0.00
2022-12-19T02:49:03.384Z,0.00
2022-12-19T02:50:02.369Z,0.00
2022-12-19T02:51:02.387Z,0.00
2022-12-19T02:52:02.347Z,0.00
2022-12-19T02:53:02.337Z,0.00
2022-12-19T02:54:02.337Z,0.00
2022-12-19T02:55:02.325Z,0.00
2022-12-19T02:56:02.304Z,0.00
2022-12-19T02:57:02.361Z,0.00
2022-12-19T02:58:02.289Z,0.00
2022-12-19T02:59:02.289Z,0.00
2022-12-19T03:00:03.161Z,0.00
2022-12-19T03:01:02.298Z,0.00
2022-12-19T03:02:02.354Z,0.00
2022-12-19T03:03:02.497Z,0.00
2022-12-19T03:04:02.226Z,0.00
2022-12-19T03:05:02.219Z,0.00
2022-12-19T03:06:02.206Z,0.00
2022-12-19T03:07:02.191Z,0.00
2022-12-19T03:08:02.191Z,0.00
2022-12-19T03:09:02.211Z,0.00
2022-12-19T03:10:02.165Z,0.00
2022-12-19T03:11:02.156Z,0.00
2022-12-19T03:12:02.141Z,0.00
2022-12-19T03:13:02.133Z,0.00
2022-12-19T03:14:02.162Z,0.00
2022-12-19T03:15:02.126Z,0.00
2022-12-19T03:16:02.141Z,0.00
2022-12-19T03:17:02.174Z,0.00
2022-12-19T03:18:02.082Z,0.00
2022-12-19T03:19:02.209Z,0.00
2022-12-19T03:20:02.071Z,0.00
2022-12-19T03:21:02.059Z,0.00
2022-12-19T03:22:02.041Z,0.00
2022-12-19T03:23:02.025Z,0.00
2022-12-19T03:24:02.021Z,0.00
2022-12-19T03:25:02.033Z,0.00
2022-12-19T03:26:02.004Z,0.00
2022-12-19T03:27:01.983Z,0.00
2022-12-19T03:28:01.983Z,0.00
2022-12-19T03:29:01.993Z,0.00
2022-12-19T03:30:01.964Z,0.00
2022-12-19T03:31:02.007Z,0.00
2022-12-19T03:32:01.953Z,0.00
2022-12-19T03:33:01.978Z,0.00
2022-12-19T03:34:01.914Z,0.00
2022-12-19T03:35:02.118Z,0.00
2022-12-19T03:36:01.906Z,0.00
2022-12-19T03:37:01.882Z,0.00
2022-12-19T03:38:01.872Z,0.00
2022-12-19T03:39:01.911Z,0.00
2022-12-19T03:40:01.850Z,0.00
2022-12-19T03:41:01.862Z,0.00
2022-12-19T03:42:01.851Z,0.00
2022-12-19T03:43:01.831Z,0.00
2022-12-19T03:44:01.814Z,0.00
2022-12-19T03:45:01.870Z,0.00
2022-12-19T03:46:01.786Z,0.00
2022-12-19T03:47:01.776Z,0.00
2022-12-19T03:48:01.782Z,0.00
2022-12-19T03:49:01.756Z,0.00
2022-12-19T03:50:01.750Z,0.00
2022-12-19T03:51:01.879Z,0.00
2022-12-19T03:52:01.718Z,0.00
2022-12-19T03:53:01.716Z,0.00
2022-12-19T03:54:01.715Z,0.00
2022-12-19T03:55:01.690Z,0.00
2022-12-19T03:56:01.678Z,0.00
2022-12-19T03:57:01.703Z,0.00
2022-12-19T03:58:01.661Z,0.00
2022-12-19T03:59:01.684Z,0.00
2022-12-19T04:00:01.639Z,0.00
2022-12-19T04:01:01.685Z,0.00
2022-12-19T04:02:02.030Z,0.00
2022-12-19T04:03:01.650Z,0.00
2022-12-19T04:04:01.593Z,0.00
2022-12-19T04:05:01.595Z,0.00
2022-12-19T04:06:01.580Z,0.00
2022-12-19T04:07:01.694Z,0.00
2022-12-19T04:08:01.554Z,0.00
2022-12-19T04:09:01.591Z,0.00
2022-12-19T04:10:01.536Z,0.00
2022-12-19T04:11:01.541Z,0.00
2022-12-19T04:12:01.515Z,0.00
2022-12-19T04:13:01.512Z,0.00
2022-12-19T04:14:01.492Z,0.00
2022-12-19T04:15:01.487Z,0.00
2022-12-19T04:16:01.572Z,0.00
2022-12-19T04:17:01.455Z,0.00
2022-12-19T04:18:01.443Z,0.00
2022-12-19T04:19:01.447Z,0.00
2022-12-19T04:20:01.480Z,0.00
2022-12-19T04:21:01.409Z,0.00
2022-12-19T04:22:01.399Z,0.00
2022-12-19T04:23:01.510Z,0.00
2022-12-19T04:24:01.390Z,0.00
2022-12-19T04:25:01.370Z,0.00
2022-12-19T04:26:01.359Z,0.00
2022-12-19T04:27:01.350Z,0.00
2022-12-19T04:28:01.342Z,0.00
2022-12-19T04:29:01.377Z,0.00
2022-12-19T04:30:01.336Z,0.00
2022-12-19T04:31:01.343Z,0.00
2022-12-19T04:32:01.292Z,0.00
2022-12-19T04:33:01.286Z,0.00
2022-12-19T04:34:01.276Z,0.00
2022-12-19T04:35:01.334Z,0.00
2022-12-19T04:36:01.255Z,0.00
2022-12-19T04:37:01.246Z,0.00
2022-12-19T04:38:01.225Z,0.00
2022-12-19T04:39:01.353Z,0.00
2022-12-19T04:40:01.209Z,0.00
2022-12-19T04:41:01.215Z,0.00
2022-12-19T04:42:01.185Z,0.00
2022-12-19T04:43:01.176Z,0.00
2022-12-19T04:44:01.167Z,0.00
2022-12-19T04:45:01.172Z,0.00
2022-12-19T04:46:01.137Z,0.00
2022-12-19T04:47:01.199Z,0.00
2022-12-19T04:48:01.120Z,0.00
2022-12-19T04:49:01.118Z,0.00
2022-12-19T04:50:01.104Z,0.00
2022-12-19T04:51:01.085Z,0.00
2022-12-19T04:52:01.088Z,0.00
2022-12-19T04:53:01.115Z,0.00
2022-12-19T04:54:01.068Z,0.00
2022-12-19T04:55:01.177Z,0.00
2022-12-19T04:56:01.037Z,0.00
2022-12-19T04:57:01.022Z,0.00
2022-12-19T04:58:01.013Z,0.00
2022-12-19T04:59:01.056Z,0.00
2022-12-19T05:00:01.016Z,0.00
2022-12-19T05:01:00.978Z,0.00
2022-12-19T05:02:01.120Z,0.00
2022-12-19T05:03:01.146Z,0.00
2022-12-19T05:04:04.403Z,0.00
2022-12-19T05:05:00.940Z,0.00
2022-12-19T05:06:00.933Z,0.00
2022-12-19T05:07:00.916Z,0.00
2022-12-19T05:08:00.901Z,0.00
2022-12-19T05:09:00.890Z,0.00
2022-12-19T05:10:00.879Z,0.00
2022-12-19T05:11:01.011Z,0.00
2022-12-19T05:12:00.905Z,0.00
2022-12-19T05:13:00.850Z,0.00
2022-12-19T05:14:00.838Z,0.00
2022-12-19T05:15:00.825Z,0.00
2022-12-19T05:16:00.936Z,0.00
2022-12-19T05:17:01.522Z,0.00
2022-12-19T05:18:00.848Z,0.00
2022-12-19T05:19:00.794Z,0.00
2022-12-19T05:20:00.775Z,0.00
2022-12-19T05:21:00.754Z,0.00
2022-12-19T05:22:00.761Z,0.00
2022-12-19T05:23:04.285Z,0.00
2022-12-19T05:24:01.781Z,0.00
2022-12-19T05:25:00.719Z,0.00
2022-12-19T05:26:00.740Z,0.00
2022-12-19T05:27:00.813Z,0.00
2022-12-19T05:28:00.700Z,0.00
2022-12-19T05:29:00.687Z,0.00
2022-12-19T05:30:00.687Z,0.00
2022-12-19T05:31:00.711Z,0.00
2022-12-19T05:32:00.651Z,0.00
2022-12-19T05:33:00.628Z,0.00
2022-12-19T05:34:00.634Z,0.00
2022-12-19T05:35:00.613Z,0.00
2022-12-19T05:36:00.605Z,0.00
2022-12-19T05:37:00.619Z,0.00
2022-12-19T05:38:00.574Z,0.00
2022-12-19T05:39:00.567Z,0.00
2022-12-19T05:40:00.567Z,0.00
2022-12-19T05:41:00.553Z,0.00
2022-12-19T05:42:00.532Z,0.00
2022-12-19T05:43:00.661Z,0.00
2022-12-19T05:44:00.514Z,0.00
2022-12-19T05:45:00.521Z,0.00
2022-12-19T05:46:00.487Z,0.00
2022-12-19T05:47:00.538Z,0.00
2022-12-19T05:48:01.645Z,0.00
2022-12-19T05:49:00.481Z,0.00
2022-12-19T05:50:00.559Z,0.00
2022-12-19T05:51:00.432Z,0.00
2022-12-19T05:52:00.427Z,0.00
2022-12-19T05:53:00.416Z,0.00
2022-12-19T05:54:00.621Z,0.00
2022-12-19T05:55:00.445Z,0.00
2022-12-19T05:56:00.398Z,0.00
2022-12-19T05:57:00.370Z,0.00
2022-12-19T05:58:00.360Z,0.00
2022-12-19T05:59:00.468Z,0.00
2022-12-19T06:00:00.336Z,0.00
2022-12-19T06:01:00.921Z,0.00
2022-12-19T06:02:00.541Z,0.00
2022-12-19T06:03:00.504Z,0.00
2022-12-19T06:04:00.299Z,0.00
2022-12-19T06:05:00.279Z,0.00
2022-12-19T06:06:00.270Z,0.00
2022-12-19T06:07:00.287Z,0.00
2022-12-19T06:08:00.258Z,0.00
2022-12-19T06:09:00.241Z,0.00
2022-12-19T06:10:00.227Z,0.00
2022-12-19T06:11:00.220Z,0.00
2022-12-19T06:12:00.205Z,0.00
2022-12-19T06:13:00.249Z,0.00
2022-12-19T06:14:00.213Z,0.00
2022-12-19T06:15:00.316Z,0.00
2022-12-19T06:16:00.234Z,0.00
2022-12-19T06:17:00.148Z,0.00
2022-12-19T06:18:00.139Z,0.00
2022-12-19T06:19:00.138Z,0.00
2022-12-19T06:20:00.212Z,0.00
2022-12-19T06:21:00.110Z,0.00
2022-12-19T06:22:00.116Z,0.00
2022-12-19T06:23:00.131Z,0.00
2022-12-19T06:24:00.095Z,0.00
2022-12-19T06:25:00.099Z,0.00
2022-12-19T06:26:00.080Z,0.00
2022-12-19T06:27:00.125Z,4.00
2022-12-19T06:28:00.038Z,4.00
2022-12-19T06:29:00.028Z,4.00
2022-12-19T06:30:00.006Z,4.00
2022-12-19T06:31:00.240Z,0.00
2022-12-19T06:32:00.023Z,4.00
2022-12-19T06:32:59.979Z,4.00
2022-12-19T06:34:00.029Z,4.00
2022-12-19T06:35:04.446Z,8.00
2022-12-19T06:36:00.959Z,4.00
2022-12-19T06:37:02.087Z,8.00
2022-12-19T06:38:01.270Z,8.00
2022-12-19T06:38:59.947Z,12.00
2022-12-19T06:39:59.904Z,16.00
2022-12-19T06:40:59.895Z,16.00
2022-12-19T06:41:59.892Z,16.00
2022-12-19T06:42:59.869Z,20.00
2022-12-19T06:43:59.895Z,28.00
2022-12-19T06:44:59.847Z,32.00
2022-12-19T06:45:59.881Z,32.00
2022-12-19T06:46:59.973Z,40.00
2022-12-19T06:47:59.830Z,44.00
2022-12-19T06:48:59.804Z,52.00
2022-12-19T06:49:59.804Z,64.00
2022-12-19T06:50:59.781Z,76.00
2022-12-19T06:51:59.772Z,84.00
2022-12-19T06:52:59.763Z,96.00
2022-12-19T06:53:59.807Z,112.00
2022-12-19T06:54:59.743Z,124.00
2022-12-19T06:55:59.734Z,140.00
2022-12-19T06:56:59.717Z,148.00
2022-12-19T06:57:59.702Z,168.00
2022-12-19T06:58:59.693Z,184.00
2022-12-19T06:59:59.683Z,196.00
2022-12-19T07:00:59.750Z,212.00
2022-12-19T07:01:59.971Z,228.00
2022-12-19T07:02:59.801Z,240.00
2022-12-19T07:03:59.658Z,260.00
2022-12-19T07:04:59.637Z,276.00
2022-12-19T07:05:59.617Z,300.00
2022-12-19T07:06:59.616Z,328.00
2022-12-19T07:07:59.611Z,352.00
2022-12-19T07:08:59.585Z,388.00
2022-12-19T07:09:59.573Z,424.00
2022-12-19T07:10:59.672Z,460.00
2022-12-19T07:11:59.558Z,500.00
2022-12-19T07:12:59.548Z,548.00
2022-12-19T07:13:59.554Z,600.00
2022-12-19T07:14:59.528Z,652.00
2022-12-19T07:15:59.577Z,704.00
2022-12-19T07:16:59.501Z,764.00
2022-12-19T07:17:59.487Z,824.00
2022-12-19T07:18:59.607Z,880.00
2022-12-19T07:19:59.479Z,936.00
2022-12-19T07:20:59.457Z,996.00
2022-12-19T07:21:59.453Z,1064.00
2022-12-19T07:22:59.442Z,1128.00
2022-12-19T07:23:59.439Z,1188.00
2022-12-19T07:24:59.427Z,1248.00
2022-12-19T07:25:59.408Z,1308.00
2022-12-19T07:26:59.405Z,1372.00
2022-12-19T07:27:59.388Z,1416.00
2022-12-19T07:28:59.382Z,1440.00
2022-12-19T07:29:59.355Z,1464.00
2022-12-19T07:30:59.363Z,1480.00
2022-12-19T07:31:59.375Z,1524.00
2022-12-19T07:32:59.328Z,1580.00
2022-12-19T07:33:59.315Z,1604.00
2022-12-19T07:34:59.446Z,1616.00
2022-12-19T07:35:59.303Z,1640.00
2022-12-19T07:36:59.301Z,1696.00
2022-12-19T07:37:59.272Z,1752.00
2022-12-19T07:38:59.259Z,1796.00
2022-12-19T07:39:59.262Z,1864.00
2022-12-19T07:40:59.242Z,1992.00
2022-12-19T07:41:59.230Z,2152.00
2022-12-19T07:42:59.223Z,2340.00
2022-12-19T07:43:59.206Z,2556.00
2022-12-19T07:44:59.197Z,2736.00
2022-12-19T07:45:59.256Z,2852.00
2022-12-19T07:46:59.211Z,2928.00
2022-12-19T07:47:59.170Z,3060.00
2022-12-19T07:48:59.168Z,3220.00
2022-12-19T07:49:59.141Z,3384.00
2022-12-19T07:50:59.269Z,3512.00
2022-12-19T07:51:59.131Z,3624.00
2022-12-19T07:52:59.115Z,3740.00
2022-12-19T07:53:59.111Z,3880.00
2022-12-19T07:54:59.151Z,4016.00
2022-12-19T07:55:59.084Z,4180.00
2022-12-19T07:56:59.069Z,4320.00
2022-12-19T07:57:59.174Z,4440.00
2022-12-19T07:58:59.053Z,4584.00
2022-12-19T07:59:59.039Z,4680.00
2022-12-19T08:00:59.080Z,4748.00
2022-12-19T08:01:59.154Z,4860.00
2022-12-19T08:02:59.224Z,5004.00
2022-12-19T08:03:59.014Z,5172.00
2022-12-19T08:04:58.983Z,5392.00
2022-12-19T08:05:58.978Z,5632.00
2022-12-19T08:06:59.094Z,5844.00
2022-12-19T08:07:58.953Z,6000.00
2022-12-19T08:08:58.941Z,6116.00
2022-12-19T08:09:58.939Z,6208.00
2022-12-19T08:10:58.915Z,6244.00
2022-12-19T08:11:58.936Z,6248.00
2022-12-19T08:12:58.899Z,6232.00
2022-12-19T08:13:58.878Z,6232.00
2022-12-19T08:14:58.871Z,6264.00
2022-12-19T08:15:58.876Z,6316.00
2022-12-19T08:17:59.842Z,6488.00
2022-12-19T08:18:58.890Z,6604.00
2022-12-19T08:19:58.819Z,6748.00
2022-12-19T08:20:58.814Z,6896.00
2022-12-19T08:21:58.799Z,7048.00
2022-12-19T08:22:58.905Z,7196.00
2022-12-19T08:23:58.778Z,7324.00
2022-12-19T08:24:58.834Z,7444.00
2022-12-19T08:25:58.753Z,7548.00
2022-12-19T08:26:58.751Z,7648.00
2022-12-19T08:27:58.736Z,7720.00
2022-12-19T08:28:58.718Z,7768.00
2022-12-19T08:29:58.728Z,7788.00
2022-12-19T08:30:58.764Z,7788.00
2022-12-19T08:31:58.706Z,7780.00
2022-12-19T08:32:58.689Z,7740.00
2022-12-19T08:33:58.672Z,7688.00
2022-12-19T08:34:58.660Z,7616.00
2022-12-19T08:35:58.656Z,7556.00
2022-12-19T08:36:58.655Z,7524.00
2022-12-19T08:37:58.681Z,7492.00
2022-12-19T08:38:58.739Z,7452.00
2022-12-19T08:39:58.603Z,7436.00
2022-12-19T08:40:58.600Z,7472.00
2022-12-19T08:41:58.580Z,7524.00
2022-12-19T08:42:58.575Z,7612.00
2022-12-19T08:43:58.575Z,7776.00
2022-12-19T08:44:58.546Z,7976.00
2022-12-19T08:45:58.597Z,8148.00
2022-12-19T08:46:58.526Z,8304.00
2022-12-19T08:47:58.514Z,8436.00
2022-12-19T08:48:58.510Z,8548.00
2022-12-19T08:49:58.509Z,8636.00
2022-12-19T08:50:58.488Z,8704.00
2022-12-19T08:51:58.480Z,8744.00
2022-12-19T08:52:58.463Z,8788.00
2022-12-19T08:53:58.473Z,8864.00
2022-12-19T08:54:58.599Z,8952.00
2022-12-19T08:55:58.428Z,9028.00
2022-12-19T08:56:58.425Z,9004.00
2022-12-19T08:57:58.413Z,8932.00
2022-12-19T08:58:58.396Z,8952.00
2022-12-19T08:59:58.407Z,8988.00
2022-12-19T09:01:04.996Z,8956.00
2022-12-19T09:01:59.638Z,8888.00
2022-12-19T09:02:58.577Z,8876.00
2022-12-19T09:04:43.469Z,8896.00
2022-12-19T09:06:00.676Z,8932.00
2022-12-19T09:06:07.028Z,9004.00
2022-12-19T09:06:59.330Z,9148.00
2022-12-19T09:07:58.305Z,9332.00
2022-12-19T09:09:00.019Z,9504.00
2022-12-19T09:09:59.300Z,9588.00
2022-12-19T09:10:58.412Z,9556.00
2022-12-19T09:11:58.258Z,9448.00
2022-12-19T09:12:58.247Z,9340.00
2022-12-19T09:13:58.241Z,9272.00
2022-12-19T09:14:58.226Z,9248.00
2022-12-19T09:15:58.220Z,9216.00
2022-12-19T09:16:58.266Z,9132.00
2022-12-19T09:17:58.195Z,8948.00
2022-12-19T09:18:58.183Z,8732.00
2022-12-19T09:19:58.173Z,8584.00
2022-12-19T09:20:58.161Z,8524.00
2022-12-19T09:21:58.153Z,8568.00
2022-12-19T09:22:58.156Z,8668.00
2022-12-19T09:24:03.488Z,8788.00
2022-12-19T09:24:59.120Z,8996.00
2022-12-19T09:25:58.109Z,9252.00
2022-12-19T09:26:58.220Z,9416.00
2022-12-19T09:28:27.301Z,9476.00
2022-12-19T09:28:59.090Z,9544.00
2022-12-19T09:29:58.087Z,9636.00
2022-12-19T09:30:58.126Z,9804.00
2022-12-19T09:31:58.042Z,10296.00
2022-12-19T09:32:58.026Z,10588.00
2022-12-19T09:33:58.039Z,10904.00
2022-12-19T09:34:58.013Z,11168.00
2022-12-19T09:35:57.997Z,11444.00
2022-12-19T09:36:58.002Z,11736.00
2022-12-19T09:38:00.363Z,12008.00
2022-12-19T09:38:57.993Z,12260.00
2022-12-19T09:39:58.897Z,12468.00
2022-12-19T09:40:57.944Z,12664.00
2022-12-19T09:41:57.966Z,12852.00
2022-12-19T09:42:58.062Z,13048.00
2022-12-19T09:43:57.912Z,13240.00
2022-12-19T09:44:57.896Z,13440.00
2022-12-19T09:45:57.957Z,13636.00
2022-12-19T09:46:57.875Z,13776.00
2022-12-19T09:47:57.936Z,13852.00
2022-12-19T09:48:57.859Z,13916.00
2022-12-19T09:49:57.846Z,14024.00
2022-12-19T09:51:10.301Z,14204.00
2022-12-19T09:51:58.831Z,14420.00
2022-12-19T09:52:57.824Z,14572.00
2022-12-19T09:53:57.838Z,14716.00
2022-12-19T09:54:57.808Z,14824.00
2022-12-19T09:55:57.780Z,14952.00
2022-12-19T09:56:57.788Z,15068.00
2022-12-19T09:57:57.758Z,15236.00
2022-12-19T09:58:57.874Z,15468.00
2022-12-19T09:59:57.742Z,15748.00
2022-12-19T10:01:00.079Z,16048.00
2022-12-19T10:01:57.825Z,16356.00
2022-12-19T10:02:58.009Z,16772.00
2022-12-19T10:03:57.778Z,17408.00
2022-12-19T10:04:59.964Z,17920.00
2022-12-19T10:06:31.343Z,18464.00
2022-12-19T10:07:21.277Z,18976.00
2022-12-19T10:08:08.260Z,19488.00
2022-12-19T10:09:46.329Z,19904.00
2022-12-19T10:12:33.430Z,20352.00
2022-12-19T10:12:39.648Z,20672.00
2022-12-19T10:12:45.227Z,20928.00
2022-12-19T10:13:00.085Z,21280.00
2022-12-19T10:13:57.590Z,21632.00
2022-12-19T10:14:57.710Z,22080.00
2022-12-19T10:16:00.323Z,23488.00
2022-12-19T10:17:23.185Z,23360.00
2022-12-19T10:17:58.553Z,22816.00
2022-12-19T10:18:57.538Z,22144.00
2022-12-19T10:19:57.537Z,21792.00
2022-12-19T10:20:57.535Z,21888.00
2022-12-19T10:22:17.658Z,22464.00
2022-12-19T10:22:58.486Z,23488.00
2022-12-19T10:23:57.504Z,24480.00
2022-12-19T10:25:08.776Z,24864.00
2022-12-19T10:25:58.475Z,25856.00
2022-12-19T10:26:57.449Z,26112.00
2022-12-19T10:27:59.404Z,24832.00
2022-12-19T10:28:57.444Z,28640.00
2022-12-19T10:29:57.417Z,30336.00
2022-12-19T10:30:57.611Z,33600.00
2022-12-19T10:31:57.574Z,32576.00
2022-12-19T10:32:57.385Z,28000.00
2022-12-19T10:33:57.375Z,26144.00
2022-12-19T10:34:57.406Z,28096.00
2022-12-19T10:35:59.701Z,28448.00
2022-12-19T10:37:26.467Z,30688.00
2022-12-19T10:37:58.328Z,37440.00
2022-12-19T10:38:57.356Z,41600.00
2022-12-19T10:39:57.323Z,41344.00
2022-12-19T10:40:57.327Z,43520.00
2022-12-19T10:41:57.289Z,38880.00
2022-12-19T10:42:57.324Z,42464.00
2022-12-19T10:43:57.297Z,39936.00
2022-12-19T10:44:57.267Z,39968.00
2022-12-19T10:45:57.323Z,38752.00
2022-12-19T10:46:57.440Z,36064.00
2022-12-19T10:47:57.236Z,31904.00
2022-12-19T10:48:57.223Z,33088.00
2022-12-19T10:49:57.257Z,33504.00
2022-12-19T10:50:57.196Z,35680.00
2022-12-19T10:51:57.221Z,34400.00
2022-12-19T10:52:57.177Z,33280.00
2022-12-19T10:53:57.237Z,34624.00
2022-12-19T10:54:57.140Z,32576.00
2022-12-19T10:55:57.140Z,31040.00
2022-12-19T10:56:57.139Z,29792.00
2022-12-19T10:57:57.135Z,30048.00
2022-12-19T10:58:57.153Z,30528.00
2022-12-19T10:59:57.149Z,34112.00
2022-12-19T11:00:57.141Z,38144.00
2022-12-19T11:02:01.038Z,39904.00
2022-12-19T11:02:58.400Z,35424.00
2022-12-19T11:03:57.053Z,30080.00
2022-12-19T11:04:57.177Z,33504.00
2022-12-19T11:05:57.591Z,35520.00
2022-12-19T11:06:57.050Z,40448.00
2022-12-19T11:07:57.035Z,37824.00
2022-12-19T11:08:56.986Z,38656.00
2022-12-19T11:10:42.675Z,36992.00
2022-12-19T11:13:10.243Z,38816.00
2022-12-19T11:17:01.236Z,38656.00
2022-12-19T11:17:48.468Z,31616.00
2022-12-19T11:19:13.668Z,25632.00
2022-12-19T11:20:09.619Z,28320.00
2022-12-19T11:20:50.934Z,26656.00
2022-12-19T11:22:25.752Z,24992.00
2022-12-19T11:24:46.221Z,24928.00
2022-12-19T11:29:32.820Z,57376.00
2022-12-19T11:29:33.802Z,40384.00
2022-12-19T11:29:34.225Z,49664.00
2022-12-19T11:29:38.302Z,25024.00
2022-12-19T11:29:39.798Z,35776.00
2022-12-19T11:29:54.117Z,57856.00
2022-12-19T11:30:05.777Z,37216.00
2022-12-19T11:30:26.149Z,36704.00
2022-12-19T11:30:43.941Z,55328.00
2022-12-19T11:30:48.857Z,56768.00
2022-12-19T11:30:59.588Z,51520.00
2022-12-19T11:31:44.172Z,45120.00
2022-12-19T11:32:01.753Z,51040.00
2022-12-19T11:32:40.139Z,43552.00
2022-12-19T11:32:57.775Z,41888.00
2022-12-19T11:33:56.763Z,43008.00
2022-12-19T11:34:56.831Z,40224.00
2022-12-19T11:35:56.737Z,40064.00
2022-12-19T11:36:56.731Z,39360.00
2022-12-19T11:37:56.695Z,35104.00
2022-12-19T11:38:56.677Z,29408.00
2022-12-19T11:39:56.674Z,26656.00
2022-12-19T11:40:56.648Z,25536.00
2022-12-19T11:41:56.659Z,25504.00
2022-12-19T11:43:25.888Z,26784.00
2022-12-19T11:43:57.617Z,25504.00
2022-12-19T11:44:56.607Z,25536.00
2022-12-19T11:45:56.605Z,27328.00
2022-12-19T11:46:56.596Z,26080.00
2022-12-19T11:47:56.578Z,23744.00
2022-12-19T11:48:56.569Z,22592.00
2022-12-19T11:49:56.547Z,21376.00
2022-12-19T11:50:56.670Z,20672.00
2022-12-19T11:51:56.540Z,19616.00
2022-12-19T11:53:06.651Z,19008.00
2022-12-19T11:53:57.510Z,18048.00
2022-12-19T11:54:56.515Z,17536.00
2022-12-19T11:55:56.492Z,17216.00
2022-12-19T11:56:56.494Z,17024.00
2022-12-19T11:57:56.467Z,17056.00
2022-12-19T11:58:56.454Z,17088.00
2022-12-19T12:00:02.974Z,17184.00
2022-12-19T12:00:57.448Z,17600.00
2022-12-19T12:01:56.442Z,17792.00
2022-12-19T12:02:56.485Z,18496.00
2022-12-19T12:04:02.517Z,19936.00
2022-12-19T12:04:57.466Z,20928.00
2022-12-19T12:05:56.398Z,28928.00
2022-12-19T12:06:56.585Z,24928.00
2022-12-19T12:09:13.073Z,26592.00
2022-12-19T12:11:34.103Z,26080.00
2022-12-19T12:14:12.092Z,33952.00
2022-12-19T12:15:22.701Z,30784.00
2022-12-19T12:17:29.530Z,31616.00
2022-12-19T12:20:40.923Z,31456.00
2022-12-19T12:22:34.739Z,29792.00
2022-12-19T12:24:17.594Z,30592.00
2022-12-19T12:27:55.170Z,31808.00
2022-12-19T12:29:53.186Z,32256.00
2022-12-19T12:29:57.347Z,31616.00
2022-12-19T12:31:15.311Z,31168.00
2022-12-19T12:31:25.892Z,27264.00
2022-12-19T12:31:28.856Z,27936.00
2022-12-19T12:31:31.852Z,26528.00
2022-12-19T12:31:31.888Z,30176.00
2022-12-19T12:31:40.923Z,28064.00
2022-12-19T12:31:44.727Z,23104.00
2022-12-19T12:31:47.162Z,25024.00
2022-12-19T12:31:49.213Z,30528.00
2022-12-19T12:31:51.155Z,31456.00
2022-12-19T12:31:56.216Z,28480.00
2022-12-19T12:32:02.053Z,21472.00
2022-12-19T12:32:03.987Z,26432.00
2022-12-19T12:35:32.948Z,19776.00
2022-12-19T12:35:46.912Z,20128.00
2022-12-19T12:35:48.614Z,20800.00
2022-12-19T12:35:56.641Z,19712.00
2022-12-19T12:39:56.024Z,18336.00
2022-12-19T12:40:56.017Z,18304.00
2022-12-19T12:41:56.015Z,18720.00
2022-12-19T12:42:55.990Z,19040.00
2022-12-19T12:43:56.003Z,18656.00